sensor_id;sensor_type;location;lat;lon;timestamp;temperature;humidity
51884;DHT22;37915;53.254;6.598;2022-07-19T00:01:40;18.80;99.90
51884;DHT22;37915;53.254;6.598;2022-07-19T00:04:05;18.80;99.90
51884;DHT22;37915;53.254;6.598;2022-07-19T00:06:31;18.80;99.90
51884;DHT22;37915;53.254;6.598;2022-07-19T00:08:57;18.80;99.90
51884;DHT22;37915;53.254;6.598;2022-07-19T00:11:22;18.70;99.90
51884;DHT22;37915;53.254;6.598;2022-07-19T00:13:48;18.70;99.90
51884;DHT22;37915;53.254;6.598;2022-07-19T00:16:13;18.70;99.90
51884;DHT22;37915;53.254;6.598;2022-07-19T00:18:40;18.60;99.90
51884;DHT22;37915;53.254;6.598;2022-07-19T00:21:05;18.60;99.90
51884;DHT22;37915;53.254;6.598;2022-07-19T00:23:31;18.60;99.90
51884;DHT22;37915;53.254;6.598;2022-07-19T00:25:57;18.60;99.90
51884;DHT22;37915;53.254;6.598;2022-07-19T00:28:22;18.50;99.90
51884;DHT22;37915;53.254;6.598;2022-07-19T00:30:48;18.50;99.90
51884;DHT22;37915;53.254;6.598;2022-07-19T00:33:13;18.50;99.90
51884;DHT22;37915;53.254;6.598;2022-07-19T00:35:40;18.50;99.90
51884;DHT22;37915;53.254;6.598;2022-07-19T00:38:09;18.60;99.90
51884;DHT22;37915;53.254;6.598;2022-07-19T00:40:36;18.50;99.90
51884;DHT22;37915;53.254;6.598;2022-07-19T00:43:01;18.50;99.90
51884;DHT22;37915;53.254;6.598;2022-07-19T00:45:27;18.50;99.90
51884;DHT22;37915;53.254;6.598;2022-07-19T00:47:53;18.50;99.90
51884;DHT22;37915;53.254;6.598;2022-07-19T00:50:19;18.40;99.90
51884;DHT22;37915;53.254;6.598;2022-07-19T00:52:45;18.40;99.90
51884;DHT22;37915;53.254;6.598;2022-07-19T00:55:14;18.30;99.90
51884;DHT22;37915;53.254;6.598;2022-07-19T00:57:40;18.30;99.90
51884;DHT22;37915;53.254;6.598;2022-07-19T01:00:07;18.30;99.90
51884;DHT22;37915;53.254;6.598;2022-07-19T01:02:33;18.20;99.90
51884;DHT22;37915;53.254;6.598;2022-07-19T01:04:59;18.20;99.90
51884;DHT22;37915;53.254;6.598;2022-07-19T01:07:26;18.20;99.90
51884;DHT22;37915;53.254;6.598;2022-07-19T01:09:52;18.20;99.90
51884;DHT22;37915;53.254;6.598;2022-07-19T01:12:18;18.20;99.90
51884;DHT22;37915;53.254;6.598;2022-07-19T01:14:44;18.10;99.90
51884;DHT22;37915;53.254;6.598;2022-07-19T01:17:10;18.10;99.90
51884;DHT22;37915;53.254;6.598;2022-07-19T01:19:35;18.00;99.90
51884;DHT22;37915;53.254;6.598;2022-07-19T01:22:01;18.00;99.90
51884;DHT22;37915;53.254;6.598;2022-07-19T01:24:27;18.00;99.90
51884;DHT22;37915;53.254;6.598;2022-07-19T01:26:53;17.90;99.90
51884;DHT22;37915;53.254;6.598;2022-07-19T01:29:18;17.90;99.90
51884;DHT22;37915;53.254;6.598;2022-07-19T01:43:54;18.40;99.90
51884;DHT22;37915;53.254;6.598;2022-07-19T01:46:19;17.80;99.90
51884;DHT22;37915;53.254;6.598;2022-07-19T01:48:45;17.80;99.90
51884;DHT22;37915;53.254;6.598;2022-07-19T01:51:10;17.70;99.90
51884;DHT22;37915;53.254;6.598;2022-07-19T01:53:36;17.70;99.90
51884;DHT22;37915;53.254;6.598;2022-07-19T01:56:05;17.70;99.90
51884;DHT22;37915;53.254;6.598;2022-07-19T01:58:31;17.70;99.90
51884;DHT22;37915;53.254;6.598;2022-07-19T02:00:56;17.60;99.90
51884;DHT22;37915;53.254;6.598;2022-07-19T02:03:22;17.00;99.90
51884;DHT22;37915;53.254;6.598;2022-07-19T02:05:48;17.50;99.90
51884;DHT22;37915;53.254;6.598;2022-07-19T02:08:13;17.50;99.90
51884;DHT22;37915;53.254;6.598;2022-07-19T02:10:39;17.50;99.90
51884;DHT22;37915;53.254;6.598;2022-07-19T02:13:04;17.40;99.90
51884;DHT22;37915;53.254;6.598;2022-07-19T02:15:30;17.40;99.90
51884;DHT22;37915;53.254;6.598;2022-07-19T02:17:56;17.70;99.90
51884;DHT22;37915;53.254;6.598;2022-07-19T02:20:21;17.40;99.90
51884;DHT22;37915;53.254;6.598;2022-07-19T02:22:47;17.40;99.90
51884;DHT22;37915;53.254;6.598;2022-07-19T02:25:13;17.40;99.90
51884;DHT22;37915;53.254;6.598;2022-07-19T02:27:39;17.40;99.90
51884;DHT22;37915;53.254;6.598;2022-07-19T02:30:05;17.40;99.90
51884;DHT22;37915;53.254;6.598;2022-07-19T02:32:31;17.40;99.90
51884;DHT22;37915;53.254;6.598;2022-07-19T02:34:56;17.30;99.90
51884;DHT22;37915;53.254;6.598;2022-07-19T02:37:22;17.20;99.90
51884;DHT22;37915;53.254;6.598;2022-07-19T02:39:47;17.20;99.90
51884;DHT22;37915;53.254;6.598;2022-07-19T02:42:13;17.20;99.90
51884;DHT22;37915;53.254;6.598;2022-07-19T02:44:38;17.20;99.90
51884;DHT22;37915;53.254;6.598;2022-07-19T02:47:04;17.20;99.90
51884;DHT22;37915;53.254;6.598;2022-07-19T02:49:30;17.30;99.90
51884;DHT22;37915;53.254;6.598;2022-07-19T02:51:55;17.30;99.90
51884;DHT22;37915;53.254;6.598;2022-07-19T02:54:21;17.30;99.90
51884;DHT22;37915;53.254;6.598;2022-07-19T02:56:46;17.30;99.90
51884;DHT22;37915;53.254;6.598;2022-07-19T02:59:12;17.40;99.90
51884;DHT22;37915;53.254;6.598;2022-07-19T03:01:37;17.40;99.90
51884;DHT22;37915;53.254;6.598;2022-07-19T03:04:03;17.40;99.90
51884;DHT22;37915;53.254;6.598;2022-07-19T03:06:29;17.40;99.90
51884;DHT22;37915;53.254;6.598;2022-07-19T03:08:54;17.30;99.90
51884;DHT22;37915;53.254;6.598;2022-07-19T03:11:20;17.20;99.90
51884;DHT22;37915;53.254;6.598;2022-07-19T03:13:46;17.20;99.90
51884;DHT22;37915;53.254;6.598;2022-07-19T03:16:11;17.20;99.90
51884;DHT22;37915;53.254;6.598;2022-07-19T03:18:37;17.20;99.90
51884;DHT22;37915;53.254;6.598;2022-07-19T03:21:02;17.20;99.90
51884;DHT22;37915;53.254;6.598;2022-07-19T03:23:30;17.20;99.90
51884;DHT22;37915;53.254;6.598;2022-07-19T03:25:56;17.20;99.90
51884;DHT22;37915;53.254;6.598;2022-07-19T03:28:22;17.20;99.90
51884;DHT22;37915;53.254;6.598;2022-07-19T03:30:47;17.20;99.90
51884;DHT22;37915;53.254;6.598;2022-07-19T03:33:13;17.10;99.90
51884;DHT22;37915;53.254;6.598;2022-07-19T03:35:44;17.10;99.90
51884;DHT22;37915;53.254;6.598;2022-07-19T03:38:10;17.00;99.90
51884;DHT22;37915;53.254;6.598;2022-07-19T03:40:36;17.00;99.90
51884;DHT22;37915;53.254;6.598;2022-07-19T03:43:02;17.00;99.90
51884;DHT22;37915;53.254;6.598;2022-07-19T03:45:28;16.90;99.90
51884;DHT22;37915;53.254;6.598;2022-07-19T03:47:53;16.90;99.90
51884;DHT22;37915;53.254;6.598;2022-07-19T03:50:19;16.90;99.90
51884;DHT22;37915;53.254;6.598;2022-07-19T03:52:45;16.90;99.90
51884;DHT22;37915;53.254;6.598;2022-07-19T03:55:10;16.90;99.90
51884;DHT22;37915;53.254;6.598;2022-07-19T03:57:36;16.80;99.90
51884;DHT22;37915;53.254;6.598;2022-07-19T04:00:02;16.80;99.90
51884;DHT22;37915;53.254;6.598;2022-07-19T04:02:28;16.80;99.90
51884;DHT22;37915;53.254;6.598;2022-07-19T04:04:54;16.90;99.90
51884;DHT22;37915;53.254;6.598;2022-07-19T04:07:20;16.90;99.90
51884;DHT22;37915;53.254;6.598;2022-07-19T04:09:45;17.00;99.90
51884;DHT22;37915;53.254;6.598;2022-07-19T04:12:11;17.00;99.90
51884;DHT22;37915;53.254;6.598;2022-07-19T04:14:36;17.00;99.90
51884;DHT22;37915;53.254;6.598;2022-07-19T04:17:02;17.00;99.90
51884;DHT22;37915;53.254;6.598;2022-07-19T04:19:30;17.00;99.90
51884;DHT22;37915;53.254;6.598;2022-07-19T04:21:55;17.00;99.90
51884;DHT22;37915;53.254;6.598;2022-07-19T04:24:21;17.00;99.90
51884;DHT22;37915;53.254;6.598;2022-07-19T04:26:46;17.00;99.90
51884;DHT22;37915;53.254;6.598;2022-07-19T04:29:12;17.00;99.90
51884;DHT22;37915;53.254;6.598;2022-07-19T04:31:37;17.00;99.90
51884;DHT22;37915;53.254;6.598;2022-07-19T04:34:03;17.10;99.90
51884;DHT22;37915;53.254;6.598;2022-07-19T04:36:29;17.10;99.90
51884;DHT22;37915;53.254;6.598;2022-07-19T04:38:54;17.10;99.90
51884;DHT22;37915;53.254;6.598;2022-07-19T04:41:20;17.20;99.90
51884;DHT22;37915;53.254;6.598;2022-07-19T04:43:45;17.20;99.90
51884;DHT22;37915;53.254;6.598;2022-07-19T04:46:11;17.30;99.90
51884;DHT22;37915;53.254;6.598;2022-07-19T04:48:36;17.40;99.90
51884;DHT22;37915;53.254;6.598;2022-07-19T04:51:02;17.40;99.90
51884;DHT22;37915;53.254;6.598;2022-07-19T04:53:28;17.50;99.90
51884;DHT22;37915;53.254;6.598;2022-07-19T04:55:53;17.60;99.90
51884;DHT22;37915;53.254;6.598;2022-07-19T04:58:19;17.60;99.90
51884;DHT22;37915;53.254;6.598;2022-07-19T05:00:44;17.80;99.90
51884;DHT22;37915;53.254;6.598;2022-07-19T05:03:10;17.80;99.90
51884;DHT22;37915;53.254;6.598;2022-07-19T05:05:36;17.90;99.90
51884;DHT22;37915;53.254;6.598;2022-07-19T05:08:01;18.00;99.90
51884;DHT22;37915;53.254;6.598;2022-07-19T05:10:27;18.10;99.90
51884;DHT22;37915;53.254;6.598;2022-07-19T05:12:52;18.10;99.90
51884;DHT22;37915;53.254;6.598;2022-07-19T05:15:18;18.20;99.90
51884;DHT22;37915;53.254;6.598;2022-07-19T05:17:43;18.30;99.90
51884;DHT22;37915;53.254;6.598;2022-07-19T05:20:09;18.30;99.90
51884;DHT22;37915;53.254;6.598;2022-07-19T05:22:36;18.40;99.90
51884;DHT22;37915;53.254;6.598;2022-07-19T05:25:01;18.50;99.90
51884;DHT22;37915;53.254;6.598;2022-07-19T05:27:27;18.50;99.90
51884;DHT22;37915;53.254;6.598;2022-07-19T05:29:52;18.60;99.90
51884;DHT22;37915;53.254;6.598;2022-07-19T05:32:18;18.60;99.90
51884;DHT22;37915;53.254;6.598;2022-07-19T05:34:43;18.70;99.90
51884;DHT22;37915;53.254;6.598;2022-07-19T05:37:09;18.80;99.90
51884;DHT22;37915;53.254;6.598;2022-07-19T05:39:35;18.80;99.90
51884;DHT22;37915;53.254;6.598;2022-07-19T05:42:00;18.90;99.90
51884;DHT22;37915;53.254;6.598;2022-07-19T05:44:26;19.00;99.90
51884;DHT22;37915;53.254;6.598;2022-07-19T05:46:52;19.10;99.90
51884;DHT22;37915;53.254;6.598;2022-07-19T05:49:18;19.20;99.90
51884;DHT22;37915;53.254;6.598;2022-07-19T05:51:44;19.30;99.90
51884;DHT22;37915;53.254;6.598;2022-07-19T05:54:09;19.40;99.90
51884;DHT22;37915;53.254;6.598;2022-07-19T05:56:35;19.50;99.90
51884;DHT22;37915;53.254;6.598;2022-07-19T05:59:01;19.60;99.90
51884;DHT22;37915;53.254;6.598;2022-07-19T06:01:27;19.70;99.90
51884;DHT22;37915;53.254;6.598;2022-07-19T06:03:54;19.80;99.90
51884;DHT22;37915;53.254;6.598;2022-07-19T06:06:20;20.00;99.90
51884;DHT22;37915;53.254;6.598;2022-07-19T06:08:46;20.10;99.90
51884;DHT22;37915;53.254;6.598;2022-07-19T06:11:12;20.20;99.90
51884;DHT22;37915;53.254;6.598;2022-07-19T06:13:37;20.30;99.90
51884;DHT22;37915;53.254;6.598;2022-07-19T06:16:03;20.50;99.90
51884;DHT22;37915;53.254;6.598;2022-07-19T06:18:29;20.60;99.90
51884;DHT22;37915;53.254;6.598;2022-07-19T06:21:00;20.80;99.90
51884;DHT22;37915;53.254;6.598;2022-07-19T06:23:26;20.90;99.90
51884;DHT22;37915;53.254;6.598;2022-07-19T06:25:52;21.00;99.90
51884;DHT22;37915;53.254;6.598;2022-07-19T06:28:17;21.10;99.90
51884;DHT22;37915;53.254;6.598;2022-07-19T06:30:43;21.20;99.90
51884;DHT22;37915;53.254;6.598;2022-07-19T06:33:08;21.30;99.90
51884;DHT22;37915;53.254;6.598;2022-07-19T06:35:34;21.40;99.90
51884;DHT22;37915;53.254;6.598;2022-07-19T06:37:59;21.50;99.90
51884;DHT22;37915;53.254;6.598;2022-07-19T06:40:25;21.60;99.90
51884;DHT22;37915;53.254;6.598;2022-07-19T06:42:51;21.70;99.90
51884;DHT22;37915;53.254;6.598;2022-07-19T06:45:16;21.80;99.90
51884;DHT22;37915;53.254;6.598;2022-07-19T06:47:42;21.90;99.90
51884;DHT22;37915;53.254;6.598;2022-07-19T06:50:07;22.10;99.90
51884;DHT22;37915;53.254;6.598;2022-07-19T06:52:33;22.20;99.90
51884;DHT22;37915;53.254;6.598;2022-07-19T06:54:59;22.30;99.90
51884;DHT22;37915;53.254;6.598;2022-07-19T06:57:24;22.40;99.90
51884;DHT22;37915;53.254;6.598;2022-07-19T06:59:50;22.60;99.90
51884;DHT22;37915;53.254;6.598;2022-07-19T07:02:15;22.70;99.90
51884;DHT22;37915;53.254;6.598;2022-07-19T07:04:41;22.80;99.90
51884;DHT22;37915;53.254;6.598;2022-07-19T07:07:06;22.90;99.90
51884;DHT22;37915;53.254;6.598;2022-07-19T07:09:32;23.10;99.90
51884;DHT22;37915;53.254;6.598;2022-07-19T07:11:57;23.20;99.90
51884;DHT22;37915;53.254;6.598;2022-07-19T07:14:23;23.30;99.90
51884;DHT22;37915;53.254;6.598;2022-07-19T07:16:49;23.50;99.90
51884;DHT22;37915;53.254;6.598;2022-07-19T07:19:14;23.60;99.90
51884;DHT22;37915;53.254;6.598;2022-07-19T07:21:40;23.70;99.90
51884;DHT22;37915;53.254;6.598;2022-07-19T07:24:05;23.80;99.90
51884;DHT22;37915;53.254;6.598;2022-07-19T07:26:31;24.00;99.90
51884;DHT22;37915;53.254;6.598;2022-07-19T07:28:57;24.10;99.90
51884;DHT22;37915;53.254;6.598;2022-07-19T07:31:23;24.20;99.90
51884;DHT22;37915;53.254;6.598;2022-07-19T07:33:48;24.40;99.90
51884;DHT22;37915;53.254;6.598;2022-07-19T07:36:14;24.50;99.90
51884;DHT22;37915;53.254;6.598;2022-07-19T07:38:39;24.60;99.90
51884;DHT22;37915;53.254;6.598;2022-07-19T07:41:05;24.70;99.90
51884;DHT22;37915;53.254;6.598;2022-07-19T07:43:31;24.80;99.90
51884;DHT22;37915;53.254;6.598;2022-07-19T07:45:56;24.90;99.90
51884;DHT22;37915;53.254;6.598;2022-07-19T07:48:22;25.00;99.90
51884;DHT22;37915;53.254;6.598;2022-07-19T07:50:48;25.10;99.90
51884;DHT22;37915;53.254;6.598;2022-07-19T07:53:13;25.30;99.90
51884;DHT22;37915;53.254;6.598;2022-07-19T07:55:40;25.30;99.90
51884;DHT22;37915;53.254;6.598;2022-07-19T07:58:06;25.40;99.90
51884;DHT22;37915;53.254;6.598;2022-07-19T08:00:33;25.60;99.90
51884;DHT22;37915;53.254;6.598;2022-07-19T08:02:58;25.70;99.90
51884;DHT22;37915;53.254;6.598;2022-07-19T08:05:24;25.80;99.90
51884;DHT22;37915;53.254;6.598;2022-07-19T08:07:50;26.00;99.90
51884;DHT22;37915;53.254;6.598;2022-07-19T08:10:16;26.10;99.90
51884;DHT22;37915;53.254;6.598;2022-07-19T08:12:41;26.20;99.90
51884;DHT22;37915;53.254;6.598;2022-07-19T08:15:09;26.30;99.90
51884;DHT22;37915;53.254;6.598;2022-07-19T08:17:35;26.40;99.90
51884;DHT22;37915;53.254;6.598;2022-07-19T08:20:00;26.60;99.90
51884;DHT22;37915;53.254;6.598;2022-07-19T08:22:26;26.70;99.90
51884;DHT22;37915;53.254;6.598;2022-07-19T08:24:53;26.70;99.90
51884;DHT22;37915;53.254;6.598;2022-07-19T08:27:19;26.90;99.90
51884;DHT22;37915;53.254;6.598;2022-07-19T08:29:44;27.00;99.90
51884;DHT22;37915;53.254;6.598;2022-07-19T08:32:10;27.10;99.90
51884;DHT22;37915;53.254;6.598;2022-07-19T08:34:35;27.20;99.90
51884;DHT22;37915;53.254;6.598;2022-07-19T08:37:01;27.30;99.90
51884;DHT22;37915;53.254;6.598;2022-07-19T08:39:27;27.40;99.90
51884;DHT22;37915;53.254;6.598;2022-07-19T08:41:52;27.60;99.90
51884;DHT22;37915;53.254;6.598;2022-07-19T08:44:18;27.70;99.90
51884;DHT22;37915;53.254;6.598;2022-07-19T08:46:44;27.80;99.90
51884;DHT22;37915;53.254;6.598;2022-07-19T08:49:10;27.90;99.90
51884;DHT22;37915;53.254;6.598;2022-07-19T08:51:36;28.10;99.90
51884;DHT22;37915;53.254;6.598;2022-07-19T08:54:01;28.20;99.90
51884;DHT22;37915;53.254;6.598;2022-07-19T08:56:27;28.30;99.90
51884;DHT22;37915;53.254;6.598;2022-07-19T08:59:11;28.60;99.90
51884;DHT22;37915;53.254;6.598;2022-07-19T09:01:37;28.80;99.90
51884;DHT22;37915;53.254;6.598;2022-07-19T09:04:11;28.90;99.90
51884;DHT22;37915;53.254;6.598;2022-07-19T09:06:38;28.90;99.90
51884;DHT22;37915;53.254;6.598;2022-07-19T09:09:03;29.10;99.90
51884;DHT22;37915;53.254;6.598;2022-07-19T09:11:33;29.20;99.90
51884;DHT22;37915;53.254;6.598;2022-07-19T09:14:06;29.40;99.90
51884;DHT22;37915;53.254;6.598;2022-07-19T09:19:41;29.60;98.60
51884;DHT22;37915;53.254;6.598;2022-07-19T09:22:08;29.70;97.10
51884;DHT22;37915;53.254;6.598;2022-07-19T09:24:35;29.80;96.40
51884;DHT22;37915;53.254;6.598;2022-07-19T09:29:30;29.90;95.70
51884;DHT22;37915;53.254;6.598;2022-07-19T09:32:00;30.00;95.70
51884;DHT22;37915;53.254;6.598;2022-07-19T09:34:29;30.10;96.30
51884;DHT22;37915;53.254;6.598;2022-07-19T09:37:08;30.20;94.90
51884;DHT22;37915;53.254;6.598;2022-07-19T09:39:34;30.20;94.70
51884;DHT22;37915;53.254;6.598;2022-07-19T09:42:00;30.30;94.10
51884;DHT22;37915;53.254;6.598;2022-07-19T09:44:28;30.40;95.20
51884;DHT22;37915;53.254;6.598;2022-07-19T09:46:54;30.50;93.80
51884;DHT22;37915;53.254;6.598;2022-07-19T09:49:20;30.60;94.90
51884;DHT22;37915;53.254;6.598;2022-07-19T09:51:46;30.70;93.40
51884;DHT22;37915;53.254;6.598;2022-07-19T09:54:13;30.80;94.30
51884;DHT22;37915;53.254;6.598;2022-07-19T09:56:40;30.90;92.80
51884;DHT22;37915;53.254;6.598;2022-07-19T09:59:05;30.90;92.60
51884;DHT22;37915;53.254;6.598;2022-07-19T10:01:31;31.00;93.60
51884;DHT22;37915;53.254;6.598;2022-07-19T10:04:07;31.10;92.70
51884;DHT22;37915;53.254;6.598;2022-07-19T10:06:33;31.20;92.60
51884;DHT22;37915;53.254;6.598;2022-07-19T10:08:59;31.30;92.90
51884;DHT22;37915;53.254;6.598;2022-07-19T10:11:25;31.40;91.80
51884;DHT22;37915;53.254;6.598;2022-07-19T10:13:51;31.50;92.10
51884;DHT22;37915;53.254;6.598;2022-07-19T10:16:18;31.60;92.20
51884;DHT22;37915;53.254;6.598;2022-07-19T10:18:51;31.70;91.30
51884;DHT22;37915;53.254;6.598;2022-07-19T10:21:19;31.80;91.70
51884;DHT22;37915;53.254;6.598;2022-07-19T10:23:51;32.10;91.10
51884;DHT22;37915;53.254;6.598;2022-07-19T10:26:36;32.20;90.40
51884;DHT22;37915;53.254;6.598;2022-07-19T10:31:37;32.20;88.80
51884;DHT22;37915;53.254;6.598;2022-07-19T10:34:10;32.20;87.00
51884;DHT22;37915;53.254;6.598;2022-07-19T10:44:32;32.10;85.30
51884;DHT22;37915;53.254;6.598;2022-07-19T10:46:57;32.10;83.50
51884;DHT22;37915;53.254;6.598;2022-07-19T10:49:42;32.20;84.80
51884;DHT22;37915;53.254;6.598;2022-07-19T10:57:37;32.80;83.70
51884;DHT22;37915;53.254;6.598;2022-07-19T11:02:41;32.90;81.70
51884;DHT22;37915;53.254;6.598;2022-07-19T11:05:07;32.90;82.70
51884;DHT22;37915;53.254;6.598;2022-07-19T11:07:32;32.90;81.60
51884;DHT22;37915;53.254;6.598;2022-07-19T11:09:58;33.10;82.00
51884;DHT22;37915;53.254;6.598;2022-07-19T11:12:34;33.20;81.90
51884;DHT22;37915;53.254;6.598;2022-07-19T11:15:03;33.30;80.00
51884;DHT22;37915;53.254;6.598;2022-07-19T11:17:28;33.40;78.60
51884;DHT22;37915;53.254;6.598;2022-07-19T11:22:26;33.50;77.20
51884;DHT22;37915;53.254;6.598;2022-07-19T11:24:51;33.50;77.30
51884;DHT22;37915;53.254;6.598;2022-07-19T11:27:17;33.60;76.40
51884;DHT22;37915;53.254;6.598;2022-07-19T11:29:55;33.60;77.90
51884;DHT22;37915;53.254;6.598;2022-07-19T11:32:21;33.70;77.50
51884;DHT22;37915;53.254;6.598;2022-07-19T11:34:57;33.70;77.60
51884;DHT22;37915;53.254;6.598;2022-07-19T11:37:27;33.70;75.50
51884;DHT22;37915;53.254;6.598;2022-07-19T11:39:54;33.70;75.80
51884;DHT22;37915;53.254;6.598;2022-07-19T11:42:26;33.60;75.40
51884;DHT22;37915;53.254;6.598;2022-07-19T11:44:52;33.60;74.90
51884;DHT22;37915;53.254;6.598;2022-07-19T11:47:20;33.80;75.40
51884;DHT22;37915;53.254;6.598;2022-07-19T11:49:46;33.90;75.10
51884;DHT22;37915;53.254;6.598;2022-07-19T11:52:12;34.00;74.50
51884;DHT22;37915;53.254;6.598;2022-07-19T11:54:37;34.10;76.20
51884;DHT22;37915;53.254;6.598;2022-07-19T11:57:22;34.30;72.80
51884;DHT22;37915;53.254;6.598;2022-07-19T11:59:47;34.50;73.90
51884;DHT22;37915;53.254;6.598;2022-07-19T12:02:13;34.60;73.00
51884;DHT22;37915;53.254;6.598;2022-07-19T12:04:39;34.70;73.70
51884;DHT22;37915;53.254;6.598;2022-07-19T12:07:05;34.70;72.60
51884;DHT22;37915;53.254;6.598;2022-07-19T12:09:30;34.70;72.80
51884;DHT22;37915;53.254;6.598;2022-07-19T12:11:58;34.70;71.40
51884;DHT22;37915;53.254;6.598;2022-07-19T12:14:25;35.00;71.90
51884;DHT22;37915;53.254;6.598;2022-07-19T12:17:11;35.10;72.40
51884;DHT22;37915;53.254;6.598;2022-07-19T12:19:37;35.10;69.70
51884;DHT22;37915;53.254;6.598;2022-07-19T12:22:03;35.20;69.20
51884;DHT22;37915;53.254;6.598;2022-07-19T12:24:29;35.30;71.00
51884;DHT22;37915;53.254;6.598;2022-07-19T12:27:05;35.20;69.30
51884;DHT22;37915;53.254;6.598;2022-07-19T12:29:35;34.70;69.00
51884;DHT22;37915;53.254;6.598;2022-07-19T12:32:05;35.20;69.20
51884;DHT22;37915;53.254;6.598;2022-07-19T12:45:15;36.00;67.70
51884;DHT22;37915;53.254;6.598;2022-07-19T12:47:41;36.00;68.40
51884;DHT22;37915;53.254;6.598;2022-07-19T12:50:09;36.00;67.60
51884;DHT22;37915;53.254;6.598;2022-07-19T12:52:43;36.20;68.20
51884;DHT22;37915;53.254;6.598;2022-07-19T12:55:08;36.20;68.20
51884;DHT22;37915;53.254;6.598;2022-07-19T12:57:34;36.30;67.30
51884;DHT22;37915;53.254;6.598;2022-07-19T13:00:00;36.30;66.40
51884;DHT22;37915;53.254;6.598;2022-07-19T13:02:25;36.30;66.40
51884;DHT22;37915;53.254;6.598;2022-07-19T13:04:51;36.20;65.70
51884;DHT22;37915;53.254;6.598;2022-07-19T13:07:16;36.20;65.00
51884;DHT22;37915;53.254;6.598;2022-07-19T13:09:42;36.10;65.20
51884;DHT22;37915;53.254;6.598;2022-07-19T13:12:08;36.10;66.50
51884;DHT22;37915;53.254;6.598;2022-07-19T13:14:34;36.30;67.00
51884;DHT22;37915;53.254;6.598;2022-07-19T13:17:00;36.40;66.80
51884;DHT22;37915;53.254;6.598;2022-07-19T13:19:25;36.40;65.70
51884;DHT22;37915;53.254;6.598;2022-07-19T13:21:51;36.50;65.70
51884;DHT22;37915;53.254;6.598;2022-07-19T13:24:17;36.70;66.00
51884;DHT22;37915;53.254;6.598;2022-07-19T13:26:42;36.70;64.90
51884;DHT22;37915;53.254;6.598;2022-07-19T13:29:08;36.80;64.70
51884;DHT22;37915;53.254;6.598;2022-07-19T13:31:34;36.80;64.60
51884;DHT22;37915;53.254;6.598;2022-07-19T13:34:00;36.80;63.90
51884;DHT22;37915;53.254;6.598;2022-07-19T13:36:25;36.80;63.20
51884;DHT22;37915;53.254;6.598;2022-07-19T13:38:51;36.80;62.60
51884;DHT22;37915;53.254;6.598;2022-07-19T13:41:16;36.80;63.30
51884;DHT22;37915;53.254;6.598;2022-07-19T13:43:45;36.80;62.00
51884;DHT22;37915;53.254;6.598;2022-07-19T13:46:11;36.90;63.40
51884;DHT22;37915;53.254;6.598;2022-07-19T13:48:37;37.10;61.80
51884;DHT22;37915;53.254;6.598;2022-07-19T13:51:03;37.20;61.50
51884;DHT22;37915;53.254;6.598;2022-07-19T13:53:28;37.20;62.20
51884;DHT22;37915;53.254;6.598;2022-07-19T13:55:54;37.20;62.60
51884;DHT22;37915;53.254;6.598;2022-07-19T13:58:19;37.20;61.70
51884;DHT22;37915;53.254;6.598;2022-07-19T14:00:45;37.30;61.50
51884;DHT22;37915;53.254;6.598;2022-07-19T14:03:15;37.20;61.90
51884;DHT22;37915;53.254;6.598;2022-07-19T14:05:46;37.10;62.40
51884;DHT22;37915;53.254;6.598;2022-07-19T14:08:11;37.00;61.20
51884;DHT22;37915;53.254;6.598;2022-07-19T14:10:37;37.00;60.90
51884;DHT22;37915;53.254;6.598;2022-07-19T14:13:03;37.20;61.50
51884;DHT22;37915;53.254;6.598;2022-07-19T14:15:29;37.40;61.80
51884;DHT22;37915;53.254;6.598;2022-07-19T14:17:55;37.20;61.60
51884;DHT22;37915;53.254;6.598;2022-07-19T14:20:20;37.30;60.50
51884;DHT22;37915;53.254;6.598;2022-07-19T14:22:46;37.40;59.30
51884;DHT22;37915;53.254;6.598;2022-07-19T14:25:11;37.40;59.50
51884;DHT22;37915;53.254;6.598;2022-07-19T14:27:37;37.30;59.60
51884;DHT22;37915;53.254;6.598;2022-07-19T14:30:03;37.20;60.40
51884;DHT22;37915;53.254;6.598;2022-07-19T14:32:28;37.10;60.20
51884;DHT22;37915;53.254;6.598;2022-07-19T14:34:54;37.10;61.30
51884;DHT22;37915;53.254;6.598;2022-07-19T14:37:20;37.00;60.00
51884;DHT22;37915;53.254;6.598;2022-07-19T14:39:45;37.10;59.90
51884;DHT22;37915;53.254;6.598;2022-07-19T14:42:11;37.10;59.60
51884;DHT22;37915;53.254;6.598;2022-07-19T14:44:37;37.00;57.40
51884;DHT22;37915;53.254;6.598;2022-07-19T14:47:02;37.00;58.70
51884;DHT22;37915;53.254;6.598;2022-07-19T14:49:28;36.90;58.70
51884;DHT22;37915;53.254;6.598;2022-07-19T14:51:54;36.90;58.80
51884;DHT22;37915;53.254;6.598;2022-07-19T14:54:20;37.00;59.00
51884;DHT22;37915;53.254;6.598;2022-07-19T14:56:45;37.10;57.20
51884;DHT22;37915;53.254;6.598;2022-07-19T14:59:11;37.10;58.80
51884;DHT22;37915;53.254;6.598;2022-07-19T15:01:36;37.10;58.60
51884;DHT22;37915;53.254;6.598;2022-07-19T15:04:02;37.10;59.20
51884;DHT22;37915;53.254;6.598;2022-07-19T15:06:28;37.10;58.00
51884;DHT22;37915;53.254;6.598;2022-07-19T15:08:54;37.00;59.00
51884;DHT22;37915;53.254;6.598;2022-07-19T15:11:20;36.80;59.60
51884;DHT22;37915;53.254;6.598;2022-07-19T15:13:45;36.70;58.80
51884;DHT22;37915;53.254;6.598;2022-07-19T15:16:11;36.70;58.80
51884;DHT22;37915;53.254;6.598;2022-07-19T15:18:37;36.60;58.10
51884;DHT22;37915;53.254;6.598;2022-07-19T15:21:02;36.30;59.30
51884;DHT22;37915;53.254;6.598;2022-07-19T15:23:28;36.10;58.70
51884;DHT22;37915;53.254;6.598;2022-07-19T15:25:56;36.10;59.80
51884;DHT22;37915;53.254;6.598;2022-07-19T15:28:21;36.10;59.50
51884;DHT22;37915;53.254;6.598;2022-07-19T15:30:47;36.30;60.10
51884;DHT22;37915;53.254;6.598;2022-07-19T15:33:12;36.50;60.10
51884;DHT22;37915;53.254;6.598;2022-07-19T15:35:38;36.60;57.90
51884;DHT22;37915;53.254;6.598;2022-07-19T15:38:04;36.50;57.40
51884;DHT22;37915;53.254;6.598;2022-07-19T15:40:29;36.40;57.50
51884;DHT22;37915;53.254;6.598;2022-07-19T15:42:55;36.40;57.80
51884;DHT22;37915;53.254;6.598;2022-07-19T15:45:20;36.30;57.10
51884;DHT22;37915;53.254;6.598;2022-07-19T15:47:46;36.20;56.60
51884;DHT22;37915;53.254;6.598;2022-07-19T15:50:12;36.20;56.40
51884;DHT22;37915;53.254;6.598;2022-07-19T15:52:39;36.10;57.60
51884;DHT22;37915;53.254;6.598;2022-07-19T15:55:05;36.00;55.10
51884;DHT22;37915;53.254;6.598;2022-07-19T15:57:31;35.80;55.40
51884;DHT22;37915;53.254;6.598;2022-07-19T15:59:56;35.70;56.80
51884;DHT22;37915;53.254;6.598;2022-07-19T16:02:22;35.70;56.00
51884;DHT22;37915;53.254;6.598;2022-07-19T16:04:49;35.80;58.10
51884;DHT22;37915;53.254;6.598;2022-07-19T16:07:14;35.80;57.80
51884;DHT22;37915;53.254;6.598;2022-07-19T16:09:40;35.70;58.20
51884;DHT22;37915;53.254;6.598;2022-07-19T16:12:06;35.70;59.40
51884;DHT22;37915;53.254;6.598;2022-07-19T16:14:31;35.70;60.50